createdAt,value
2022-11-16T00:02:13.570Z,6.72
2022-11-16T00:04:40.060Z,6.60
2022-11-16T00:07:06.638Z,7.47
2022-11-16T00:09:33.769Z,6.72
2022-11-16T00:12:03.229Z,7.45
2022-11-16T00:14:33.272Z,6.78
2022-11-16T00:17:00.568Z,7.53
2022-11-16T00:19:27.948Z,6.93
2022-11-16T00:21:54.718Z,7.57
2022-11-16T00:24:22.507Z,7.22
2022-11-16T00:26:50.110Z,8.05
2022-11-16T00:29:20.051Z,8.35
2022-11-16T00:31:47.253Z,7.10
2022-11-16T00:34:14.146Z,8.05
2022-11-16T00:36:40.552Z,7.20
2022-11-16T00:39:07.109Z,7.82
2022-11-16T00:41:33.494Z,7.70
2022-11-16T00:43:59.916Z,7.37
2022-11-16T00:46:26.322Z,7.65
2022-11-16T00:48:52.838Z,6.85
2022-11-16T00:51:19.218Z,7.55
2022-11-16T00:53:45.648Z,7.50
2022-11-16T00:56:12.060Z,7.33
2022-11-16T00:58:38.521Z,7.32
2022-11-16T01:01:07.008Z,7.30
2022-11-16T01:03:36.607Z,7.43
2022-11-16T01:06:09.274Z,7.25
2022-11-16T01:08:37.163Z,7.50
2022-11-16T01:11:23.061Z,7.38
2022-11-16T01:13:49.436Z,7.35
2022-11-16T01:16:17.080Z,7.68
2022-11-16T01:18:47.166Z,6.97
2022-11-16T01:21:13.637Z,6.97
2022-11-16T01:23:40.038Z,6.93
2022-11-16T01:26:06.477Z,7.68
2022-11-16T01:28:33.476Z,8.23
2022-11-16T01:31:00.184Z,7.93
2022-11-16T01:33:26.721Z,6.90
2022-11-16T01:35:54.385Z,7.50
2022-11-16T01:38:20.872Z,8.30
2022-11-16T01:40:47.278Z,7.68
2022-11-16T01:43:19.643Z,6.47
2022-11-16T01:45:46.525Z,7.30
2022-11-16T01:48:17.046Z,7.43
2022-11-16T01:50:44.554Z,7.20
2022-11-16T01:53:12.799Z,7.72
2022-11-16T01:55:42.270Z,8.00
2022-11-16T01:58:14.510Z,7.37
2022-11-16T02:00:41.066Z,7.57
2022-11-16T02:03:07.539Z,7.25
2022-11-16T02:06:02.947Z,8.57
2022-11-16T02:09:17.965Z,7.53
2022-11-16T02:12:08.791Z,6.80
2022-11-16T02:15:13.848Z,7.18
2022-11-16T02:18:02.453Z,6.78
2022-11-16T02:20:35.009Z,7.22
2022-11-16T02:23:26.836Z,6.03
2022-11-16T02:26:17.501Z,6.63
2022-11-16T02:29:01.283Z,6.25
2022-11-16T02:31:33.572Z,6.40
2022-11-16T02:34:01.351Z,6.32
2022-11-16T02:36:27.828Z,6.35
2022-11-16T02:39:03.437Z,6.27
2022-11-16T02:41:33.852Z,6.22
2022-11-16T02:44:08.104Z,6.63
2022-11-16T02:46:38.090Z,6.30
2022-11-16T02:49:09.575Z,6.10
2022-11-16T02:51:37.381Z,6.97
2022-11-16T02:54:17.351Z,7.00
2022-11-16T02:57:17.680Z,6.65
2022-11-16T02:59:52.251Z,6.80
2022-11-16T03:02:36.360Z,6.30
2022-11-16T03:05:09.561Z,6.13
2022-11-16T03:07:45.937Z,6.28
2022-11-16T03:10:33.381Z,6.60
2022-11-16T03:13:02.246Z,6.13
2022-11-16T03:15:29.881Z,6.68
2022-11-16T03:17:58.590Z,6.00
2022-11-16T03:20:29.786Z,6.32
2022-11-16T03:23:03.625Z,6.85
2022-11-16T03:25:36.548Z,5.85
2022-11-16T03:28:15.200Z,6.15
2022-11-16T03:30:52.621Z,6.50
2022-11-16T03:33:37.288Z,5.95
2022-11-16T03:36:09.489Z,5.85
2022-11-16T03:38:39.665Z,5.78
2022-11-16T03:41:08.750Z,6.05
2022-11-16T03:43:38.025Z,5.97
2022-11-16T03:46:05.762Z,6.15
2022-11-16T03:48:35.776Z,5.80
2022-11-16T03:51:03.448Z,5.93
2022-11-16T03:53:30.016Z,5.88
2022-11-16T03:55:56.482Z,5.50
2022-11-16T03:58:22.989Z,6.40
2022-11-16T04:00:49.507Z,6.85
2022-11-16T04:03:16.108Z,5.68
2022-11-16T04:06:01.520Z,6.45
2022-11-16T04:08:46.501Z,5.93
2022-11-16T04:11:37.852Z,6.40
2022-11-16T04:14:23.011Z,6.10
2022-11-16T04:17:07.873Z,5.35
2022-11-16T04:19:57.784Z,5.75
2022-11-16T04:22:49.188Z,5.57
2022-11-16T04:25:27.040Z,5.07
2022-11-16T04:28:13.330Z,4.40
2022-11-16T04:31:08.276Z,4.63
2022-11-16T04:33:53.550Z,5.13
2022-11-16T04:36:38.913Z,5.10
2022-11-16T04:39:05.620Z,4.70
2022-11-16T04:41:51.571Z,4.10
2022-11-16T04:44:18.969Z,4.63
2022-11-16T04:47:04.438Z,4.60
2022-11-16T04:49:30.988Z,4.30
2022-11-16T04:51:57.500Z,3.65
2022-11-16T04:54:24.412Z,3.97
2022-11-16T04:56:50.877Z,3.85
2022-11-16T04:59:18.298Z,3.85
2022-11-16T05:02:03.442Z,3.83
2022-11-16T05:04:29.849Z,3.10
2022-11-16T05:06:56.325Z,3.50
2022-11-16T05:09:22.768Z,4.30
2022-11-16T05:11:49.169Z,2.88
2022-11-16T05:14:15.595Z,3.43
2022-11-16T05:16:42.027Z,3.67
2022-11-16T05:19:27.211Z,3.60
2022-11-16T05:21:53.659Z,3.45
2022-11-16T05:24:35.404Z,3.53
2022-11-16T05:27:11.179Z,3.60
2022-11-16T05:29:38.042Z,3.67
2022-11-16T05:32:05.367Z,4.10
2022-11-16T05:34:32.431Z,3.67
2022-11-16T05:36:59.542Z,4.18
2022-11-16T05:39:26.254Z,3.80
2022-11-16T05:41:53.105Z,4.43
2022-11-16T05:44:19.833Z,4.18
2022-11-16T05:46:47.127Z,3.97
2022-11-16T05:49:14.442Z,4.20
2022-11-16T05:51:42.340Z,4.30
2022-11-16T05:54:11.652Z,4.38
2022-11-16T05:56:38.245Z,4.07
2022-11-16T05:59:04.711Z,4.13
2022-11-16T06:01:31.157Z,4.22
2022-11-16T06:04:01.719Z,4.03
2022-11-16T06:06:28.978Z,5.03
2022-11-16T06:08:55.830Z,5.43
2022-11-16T06:11:22.590Z,5.68
2022-11-16T06:13:49.511Z,5.57
2022-11-16T06:16:16.005Z,5.70
2022-11-16T06:18:44.687Z,6.38
2022-11-16T06:21:12.257Z,6.00
2022-11-16T06:23:39.007Z,7.25
2022-11-16T06:26:06.467Z,7.18
2022-11-16T06:28:34.251Z,7.13
2022-11-16T06:31:01.835Z,7.15
2022-11-16T06:33:32.327Z,7.72
2022-11-16T06:36:00.126Z,7.00
2022-11-16T06:38:27.270Z,7.53
2022-11-16T06:40:56.233Z,7.63
2022-11-16T06:43:23.388Z,8.35
2022-11-16T06:45:51.956Z,8.07
2022-11-16T06:48:19.546Z,7.70
2022-11-16T06:50:49.213Z,7.80
2022-11-16T06:53:16.258Z,8.67
2022-11-16T06:55:42.756Z,7.22
2022-11-16T06:58:09.423Z,8.07
2022-11-16T07:00:36.476Z,8.00
2022-11-16T07:03:03.689Z,8.48
2022-11-16T07:05:30.876Z,7.43
2022-11-16T07:07:57.393Z,7.85
2022-11-16T07:10:24.034Z,7.38
2022-11-16T07:12:50.512Z,7.22
2022-11-16T07:15:17.162Z,7.55
2022-11-16T07:17:43.638Z,7.37
2022-11-16T07:20:11.994Z,7.82
2022-11-16T07:22:38.766Z,6.55
2022-11-16T07:25:05.740Z,6.10
2022-11-16T07:27:32.128Z,6.70
2022-11-16T07:29:58.575Z,5.87
2022-11-16T07:32:24.982Z,5.82
2022-11-16T07:34:51.463Z,5.22
2022-11-16T07:37:17.936Z,4.72
2022-11-16T07:39:45.578Z,4.85
2022-11-16T07:42:12.317Z,5.17
2022-11-16T07:44:39.278Z,5.18
2022-11-16T07:47:06.007Z,5.25
2022-11-16T07:49:32.544Z,4.65
2022-11-16T07:51:59.059Z,4.22
2022-11-16T07:54:25.575Z,3.97
2022-11-16T07:56:55.109Z,4.30
2022-11-16T07:59:21.596Z,3.30
2022-11-16T08:01:48.332Z,3.35
2022-11-16T08:04:15.467Z,3.35
2022-11-16T08:06:41.949Z,3.00
2022-11-16T08:09:09.426Z,3.00
2022-11-16T08:11:35.930Z,2.47
2022-11-16T08:14:02.355Z,2.40
2022-11-16T08:16:29.228Z,3.13
2022-11-16T08:18:55.865Z,2.40
2022-11-16T08:21:22.282Z,2.22
2022-11-16T08:23:51.549Z,1.83
2022-11-16T08:26:22.071Z,2.65
2022-11-16T08:28:53.844Z,2.03
2022-11-16T08:31:24.081Z,3.43
2022-11-16T08:33:51.817Z,2.03
2022-11-16T08:36:18.958Z,1.80
2022-11-16T08:38:47.336Z,2.17
2022-11-16T08:41:14.366Z,2.65
2022-11-16T08:43:41.294Z,2.80
2022-11-16T08:46:09.655Z,3.85
2022-11-16T08:48:37.078Z,3.03
2022-11-16T08:51:20.786Z,2.85
2022-11-16T08:53:49.084Z,2.83
2022-11-16T08:56:17.413Z,3.63
2022-11-16T08:58:46.376Z,3.08
2022-11-16T09:01:15.543Z,2.45
2022-11-16T09:03:42.403Z,3.03
2022-11-16T09:06:10.124Z,2.92
2022-11-16T09:08:38.544Z,2.63
2022-11-16T09:11:09.821Z,2.90
2022-11-16T09:13:36.494Z,2.30
2022-11-16T09:16:04.375Z,3.03
2022-11-16T09:18:31.532Z,2.20
2022-11-16T09:20:58.494Z,2.53
2022-11-16T09:23:25.929Z,2.28
2022-11-16T09:25:53.036Z,2.30
2022-11-16T09:28:20.426Z,2.40
2022-11-16T09:30:50.055Z,3.20
2022-11-16T09:33:16.775Z,2.43
2022-11-16T09:35:43.368Z,2.35
2022-11-16T09:38:10.093Z,2.05
2022-11-16T09:40:39.307Z,2.10
2022-11-16T09:43:30.902Z,2.50
2022-11-16T09:46:06.666Z,2.10
2022-11-16T09:48:37.967Z,1.90
2022-11-16T09:51:09.691Z,1.75
2022-11-16T09:53:46.314Z,2.50
2022-11-16T09:56:22.366Z,2.20
2022-11-16T09:59:09.389Z,1.83
2022-11-16T10:01:44.555Z,1.90
2022-11-16T10:04:20.593Z,1.90
2022-11-16T10:07:00.886Z,2.13
2022-11-16T10:09:27.896Z,1.88
2022-11-16T10:12:04.596Z,1.90
2022-11-16T10:15:01.452Z,2.15
2022-11-16T10:17:27.819Z,1.98
2022-11-16T10:19:57.031Z,1.90
2022-11-16T10:22:46.396Z,1.80
2022-11-16T10:25:15.643Z,1.83
2022-11-16T10:28:16.239Z,1.80
2022-11-16T10:30:58.326Z,1.60
2022-11-16T10:33:26.963Z,1.30
2022-11-16T10:35:54.178Z,1.80
2022-11-16T10:38:27.467Z,1.80
2022-11-16T10:41:14.512Z,1.60
2022-11-16T10:43:43.261Z,1.70
2022-11-16T10:46:42.135Z,1.42
2022-11-16T10:49:30.432Z,1.80
2022-11-16T10:51:57.805Z,1.43
2022-11-16T10:54:24.309Z,1.35
2022-11-16T10:57:04.396Z,1.45
2022-11-16T10:59:42.991Z,1.50
2022-11-16T11:02:24.810Z,2.10
2022-11-16T11:05:05.976Z,2.00
2022-11-16T11:07:39.660Z,1.40
2022-11-16T11:10:24.209Z,1.50
2022-11-16T11:13:26.295Z,1.60
2022-11-16T11:16:13.760Z,1.25
2022-11-16T11:18:40.378Z,1.30
2022-11-16T11:21:18.727Z,1.30
2022-11-16T11:23:51.879Z,1.55
2022-11-16T11:26:33.091Z,1.85
2022-11-16T11:29:22.386Z,1.77
2022-11-16T11:31:52.721Z,1.60
2022-11-16T11:34:26.592Z,1.55
2022-11-16T11:36:58.016Z,1.33
2022-11-16T11:39:24.458Z,1.40
2022-11-16T11:42:03.741Z,1.00
2022-11-16T11:44:42.613Z,1.77
2022-11-16T11:50:21.462Z,0.95
2022-11-16T11:53:02.154Z,1.65
2022-11-16T11:55:29.451Z,1.50
2022-11-16T11:57:56.693Z,1.00
2022-11-16T12:00:23.847Z,0.82
2022-11-16T12:03:26.715Z,1.17
2022-11-16T12:06:19.341Z,1.13
2022-11-16T12:09:03.111Z,1.15
2022-11-16T12:11:45.524Z,1.10
2022-11-16T12:14:23.281Z,1.45
2022-11-16T12:17:07.068Z,1.42
2022-11-16T12:19:59.448Z,1.02
2022-11-16T12:22:38.072Z,1.45
2022-11-16T12:25:15.555Z,1.80
2022-11-16T12:27:53.779Z,1.40
2022-11-16T12:30:23.344Z,2.30
2022-11-16T12:33:23.630Z,1.23
2022-11-16T12:36:07.619Z,1.50
2022-11-16T12:38:40.338Z,1.70
2022-11-16T12:41:06.731Z,1.48
2022-11-16T12:43:38.988Z,1.80
2022-11-16T12:46:23.586Z,1.40
2022-11-16T12:49:20.414Z,1.73
2022-11-16T12:51:55.752Z,1.30
2022-11-16T12:54:52.476Z,1.48
2022-11-16T12:57:49.896Z,0.85
2022-11-16T13:00:19.492Z,1.13
2022-11-16T13:03:00.091Z,1.30
2022-11-16T13:05:51.528Z,0.70
2022-11-16T13:08:23.801Z,1.38
2022-11-16T13:11:05.334Z,1.25
2022-11-16T13:13:36.959Z,1.00
2022-11-16T13:16:06.900Z,1.20
2022-11-16T13:18:37.604Z,0.97
2022-11-16T13:21:18.775Z,0.88
2022-11-16T13:24:04.032Z,1.10
2022-11-16T13:26:38.713Z,0.80
2022-11-16T13:29:23.761Z,1.05
2022-11-16T13:32:14.651Z,0.90
2022-11-16T13:34:41.564Z,0.90
2022-11-16T13:37:39.320Z,0.70
2022-11-16T13:40:12.137Z,0.98
2022-11-16T13:43:09.439Z,1.27
2022-11-16T13:45:44.168Z,0.80
2022-11-16T13:48:21.066Z,0.90
2022-11-16T13:50:51.415Z,0.80
2022-11-16T13:56:28.938Z,1.00
2022-11-16T13:58:56.066Z,0.87
2022-11-16T14:01:23.854Z,0.90
2022-11-16T14:03:52.499Z,0.98
2022-11-16T14:06:18.884Z,0.70
2022-11-16T14:08:46.761Z,0.93
2022-11-16T14:11:30.356Z,1.00
2022-11-16T14:13:58.539Z,1.10
2022-11-16T14:16:24.951Z,0.80
2022-11-16T14:19:02.881Z,1.25
2022-11-16T14:21:39.693Z,1.00
2022-11-16T14:24:29.019Z,0.93
2022-11-16T14:27:27.766Z,1.13
2022-11-16T14:30:05.675Z,1.08
2022-11-16T14:32:43.411Z,1.27
2022-11-16T14:35:26.084Z,1.27
2022-11-16T14:38:01.927Z,0.77
2022-11-16T14:40:29.064Z,1.60
2022-11-16T14:43:23.060Z,1.42
2022-11-16T14:46:13.587Z,1.05
2022-11-16T14:48:45.974Z,1.00
2022-11-16T14:51:22.538Z,1.03
2022-11-16T14:53:52.273Z,0.82
2022-11-16T14:56:19.532Z,1.15
2022-11-16T14:58:57.998Z,1.20
2022-11-16T15:01:31.495Z,1.25
2022-11-16T15:04:07.502Z,0.97
2022-11-16T15:06:43.452Z,1.50
2022-11-16T15:09:17.727Z,3.15
2022-11-16T15:12:07.069Z,3.22
2022-11-16T15:14:39.857Z,5.68
2022-11-16T15:17:07.360Z,5.67
2022-11-16T15:19:33.872Z,4.53
2022-11-16T15:22:02.184Z,2.85
2022-11-16T15:24:32.157Z,2.15
2022-11-16T15:27:36.543Z,1.70
2022-11-16T15:30:14.475Z,4.60
2022-11-16T15:32:45.794Z,6.40
2022-11-16T15:35:36.183Z,3.55
2022-11-16T15:38:21.599Z,3.83
2022-11-16T15:40:54.204Z,2.38
2022-11-16T15:43:24.376Z,1.80
2022-11-16T15:48:25.404Z,2.40
2022-11-16T15:51:05.065Z,2.50
2022-11-16T15:53:46.910Z,2.78
2022-11-16T15:56:15.450Z,4.00
2022-11-16T15:58:42.761Z,3.28
2022-11-16T16:01:11.727Z,3.58
2022-11-16T16:03:38.960Z,3.30
2022-11-16T16:06:06.116Z,3.38
2022-11-16T16:08:38.034Z,4.10
2022-11-16T16:11:24.006Z,3.33
2022-11-16T16:13:57.659Z,3.80
2022-11-16T16:16:26.935Z,3.78
2022-11-16T16:18:56.376Z,2.83
2022-11-16T16:21:22.947Z,3.83
2022-11-16T16:23:53.759Z,6.55
2022-11-16T16:26:21.679Z,3.45
2022-11-16T16:28:49.415Z,3.53
2022-11-16T16:31:17.549Z,4.32
2022-11-16T16:33:44.118Z,4.33
2022-11-16T16:36:13.746Z,3.72
2022-11-16T16:38:40.229Z,6.97
2022-11-16T16:41:07.138Z,7.00
2022-11-16T16:43:34.328Z,5.25
2022-11-16T16:46:02.615Z,6.07
2022-11-16T16:48:29.382Z,5.10
2022-11-16T16:50:55.958Z,3.70
2022-11-16T16:53:22.409Z,2.78
2022-11-16T16:55:48.990Z,3.55
2022-11-16T16:58:16.499Z,2.70
2022-11-16T17:00:43.307Z,3.35
2022-11-16T17:03:09.848Z,4.00
2022-11-16T17:05:36.410Z,2.75
2022-11-16T17:08:03.318Z,2.92
2022-11-16T17:10:29.792Z,2.80
2022-11-16T17:12:57.298Z,2.35
2022-11-16T17:15:24.470Z,2.78
2022-11-16T17:17:50.987Z,2.53
2022-11-16T17:20:17.615Z,2.90
2022-11-16T17:22:44.178Z,2.30
2022-11-16T17:25:10.861Z,2.47
2022-11-16T17:27:37.451Z,3.03
2022-11-16T17:30:04.569Z,4.28
2022-11-16T17:32:31.065Z,3.33
2022-11-16T17:34:57.528Z,2.67
2022-11-16T17:37:24.074Z,3.55
2022-11-16T17:39:50.487Z,3.20
2022-11-16T17:42:17.073Z,3.63
2022-11-16T17:44:43.574Z,4.00
2022-11-16T17:47:10.030Z,3.37
2022-11-16T17:49:36.502Z,2.85
2022-11-16T17:52:04.508Z,3.10
2022-11-16T17:54:30.986Z,3.15
2022-11-16T17:56:57.544Z,3.40
2022-11-16T17:59:29.201Z,3.23
2022-11-16T18:01:58.009Z,4.57
2022-11-16T18:04:24.793Z,3.40
2022-11-16T18:06:51.424Z,3.38
2022-11-16T18:09:18.749Z,5.13
2022-11-16T18:11:45.468Z,4.77
2022-11-16T18:14:12.027Z,5.25
2022-11-16T18:16:41.117Z,3.67
2022-11-16T18:19:07.683Z,4.07
2022-11-16T18:21:41.534Z,8.38
2022-11-16T18:24:09.165Z,8.87
2022-11-16T18:26:35.915Z,5.03
2022-11-16T18:29:02.576Z,11.18
2022-11-16T18:31:29.834Z,10.07
2022-11-16T18:33:58.135Z,6.78
2022-11-16T18:36:24.723Z,13.03
2022-11-16T18:38:51.308Z,9.50
2022-11-16T18:41:23.890Z,7.20
2022-11-16T18:44:06.290Z,6.55
2022-11-16T18:46:33.015Z,10.95
2022-11-16T18:48:59.635Z,13.97
2022-11-16T18:51:27.692Z,12.40
2022-11-16T18:53:55.300Z,7.78
2022-11-16T18:56:22.373Z,6.75
2022-11-16T18:58:50.968Z,11.13
2022-11-16T19:01:20.578Z,14.67
2022-11-16T19:03:47.242Z,10.55
2022-11-16T19:06:15.627Z,5.25
2022-11-16T19:08:42.501Z,6.05
2022-11-16T19:11:11.583Z,6.07
2022-11-16T19:13:39.946Z,6.67
2022-11-16T19:16:07.721Z,8.25
2022-11-16T19:18:35.566Z,5.00
2022-11-16T19:21:10.208Z,4.78
2022-11-16T19:23:42.818Z,4.38
2022-11-16T19:26:10.177Z,2.60
2022-11-16T19:28:37.812Z,4.65
2022-11-16T19:31:16.237Z,3.42
2022-11-16T19:33:44.329Z,3.40
2022-11-16T19:36:20.894Z,3.42
2022-11-16T19:38:48.460Z,8.83
2022-11-16T19:41:16.378Z,5.03
2022-11-16T19:43:43.328Z,3.92
2022-11-16T19:46:17.624Z,7.32
2022-11-16T19:48:45.909Z,6.22
2022-11-16T19:51:18.834Z,4.30
2022-11-16T19:53:45.844Z,5.25
2022-11-16T19:56:15.222Z,8.07
2022-11-16T19:58:42.661Z,2.60
2022-11-16T20:01:21.054Z,2.45
2022-11-16T20:03:48.762Z,2.63
2022-11-16T20:06:18.271Z,2.30
2022-11-16T20:09:02.844Z,2.60
2022-11-16T20:11:35.893Z,2.17
2022-11-16T20:14:04.960Z,2.15
2022-11-16T20:16:38.450Z,2.23
2022-11-16T20:19:09.991Z,2.38
2022-11-16T20:21:41.689Z,2.30
2022-11-16T20:24:11.805Z,1.95
2022-11-16T20:26:42.914Z,1.95
2022-11-16T20:29:11.862Z,1.67
2022-11-16T20:31:42.374Z,1.80
2022-11-16T20:34:13.942Z,2.13
2022-11-16T20:36:45.690Z,1.85
2022-11-16T20:39:22.408Z,2.20
2022-11-16T20:41:49.455Z,2.30
2022-11-16T20:44:23.745Z,2.45
2022-11-16T20:46:52.875Z,1.90
2022-11-16T20:49:19.380Z,1.73
2022-11-16T20:51:47.947Z,1.80
2022-11-16T20:54:14.512Z,2.23
2022-11-16T20:56:41.233Z,2.20
2022-11-16T20:59:07.739Z,1.45
2022-11-16T21:01:34.683Z,2.00
2022-11-16T21:04:03.757Z,1.95
2022-11-16T21:06:31.481Z,1.80
2022-11-16T21:08:58.321Z,2.00
2022-11-16T21:11:28.059Z,1.60
2022-11-16T21:14:13.320Z,1.63
2022-11-16T21:16:40.249Z,2.00
2022-11-16T21:19:06.976Z,2.07
2022-11-16T21:21:34.004Z,2.00
2022-11-16T21:24:00.617Z,2.35
2022-11-16T21:26:29.280Z,1.75
2022-11-16T21:28:56.711Z,1.83
2022-11-16T21:31:25.963Z,2.23
2022-11-16T21:33:53.620Z,1.80
2022-11-16T21:36:23.629Z,2.20
2022-11-16T21:38:51.081Z,2.20
2022-11-16T21:41:19.872Z,1.98
2022-11-16T21:43:46.778Z,2.30
2022-11-16T21:46:14.258Z,2.30
2022-11-16T21:48:40.733Z,2.30
2022-11-16T21:51:08.760Z,2.22
2022-11-16T21:53:36.198Z,2.13
2022-11-16T21:56:03.825Z,2.20
2022-11-16T21:58:30.506Z,1.85
2022-11-16T22:00:58.670Z,1.77
2022-11-16T22:03:26.591Z,1.92
2022-11-16T22:06:12.385Z,2.22
2022-11-16T22:08:39.815Z,2.03
2022-11-16T22:11:07.723Z,1.95
2022-11-16T22:13:35.401Z,1.90
2022-11-16T22:16:13.413Z,2.88
2022-11-16T22:18:39.895Z,2.63
2022-11-16T22:21:07.226Z,2.40
2022-11-16T22:23:34.324Z,2.85
2022-11-16T22:26:02.121Z,2.10
2022-11-16T22:28:28.683Z,2.42
2022-11-16T22:31:01.095Z,1.92
2022-11-16T22:33:27.902Z,2.60
2022-11-16T22:35:54.542Z,2.30
2022-11-16T22:38:21.116Z,2.55
2022-11-16T22:40:55.799Z,2.58
2022-11-16T22:43:28.211Z,2.03
2022-11-16T22:46:02.931Z,2.23
2022-11-16T22:48:31.294Z,2.53
2022-11-16T22:51:06.867Z,2.08
2022-11-16T22:53:34.721Z,2.42
2022-11-16T22:56:06.619Z,2.25
2022-11-16T22:58:33.417Z,2.87
2022-11-16T23:00:59.944Z,2.80
2022-11-16T23:03:26.435Z,2.30
2022-11-16T23:05:52.956Z,2.40
2022-11-16T23:08:24.698Z,2.10
2022-11-16T23:11:26.825Z,2.80
2022-11-16T23:14:12.810Z,2.20
2022-11-16T23:16:39.984Z,1.90
2022-11-16T23:19:27.615Z,2.10
2022-11-16T23:22:13.391Z,3.03
2022-11-16T23:24:58.708Z,2.20
2022-11-16T23:27:33.765Z,2.45
2022-11-16T23:30:04.519Z,2.55
2022-11-16T23:32:34.596Z,2.70
2022-11-16T23:35:01.079Z,2.40
2022-11-16T23:37:27.565Z,2.00
2022-11-16T23:39:53.993Z,2.25
2022-11-16T23:42:38.899Z,2.45
2022-11-16T23:45:05.663Z,2.28
2022-11-16T23:47:32.096Z,2.45
2022-11-16T23:49:58.512Z,2.50
2022-11-16T23:52:24.976Z,2.30
2022-11-16T23:54:51.410Z,2.58
2022-11-16T23:57:17.868Z,2.00
2022-11-16T23:59:44.284Z,2.70
